Spokane/Fairchild AFB, Washington
Current Conditions -  °F | °C
As of 7:58 PM on Monday 20 Oct 2014 (Local Time) from KSKA Reporting Station
Overcast Overcast  
Wind Chill: 56°   Ceiling: 6000
Heat Index: 56°   Visibility: 10mi
Dew Point: 49°   Wind: 17mph
Humidity: 76%   Direction: 250°WSW
Pressure: 29.77"   Gusts: NA
Location:  47.62°N, 117.65°W
Report Text: KSKA 210258Z AUTO 25015KT 10SM BKN060 OVC120 14/09 A2977 RMK AO2 CIG 060 RWY05 SLP086 T01350093
Loading
Personal Weather Stations






























Interactive Weather Map New forecast layout! Learn more

10-Day Weather Forecast

Advertisements
Track Severe Weather on mobile